CPX317 Details

Departure: Portland International Airport (KPDX)
Arrival: Phoenix Sky Harbor International Airport (KPHX) at N/A
Route: BTG J159 DSD REO J523 ELY WINEN Q35 CORKR TENTS BRUSR1
Notes:


Current Weather Information
KPDX 171653Z 29004KT 10SM SCT022 SCT034 BKN044 18/12 A3003 RMK AO2 SLP168 T01830117
KPHX 171651Z VRB05KT 10SM FEW200 FEW250 35/14 A2984 RMK AO2 SLP083 T03500144